| time (UTC) | temp C | wind direction | speed KPH | gust KPH | rain 1hr cm | rain 24hr cm | rain mn cm | humidity % | barometer mb |
| 20260506045058 | 21 | 180 | 0.0 | 0.0 | 0.00 | 0.00 | 0.00 | 70 | 1007.1 |
| 20260506044556 | 21 | 215 | 1.6 | 3.2 | 0.00 | 0.00 | 0.00 | 70 | 1007.1 |
| 20260506044052 | 21 | 175 | 1.6 | 4.8 | 0.00 | 0.00 | 0.00 | 70 | 1007.1 |
| 20260506043549 | 21 | 246 | 0.0 | 0.0 | 0.00 | 0.00 | 0.00 | 70 | 1007.1 |
| 20260506043048 | 21 | 169 | 0.0 | 0.0 | 0.00 | 0.00 | 0.00 | 70 | 1006.9 |
| 20260506042547 | 21 | 202 | 0.0 | 0.0 | 0.00 | 0.00 | 0.00 | 69 | 1007.3 |
| 20260506042044 | 21 | 212 | 0.0 | 0.0 | 0.00 | 0.00 | 0.00 | 69 | 1007.1 |
| 20260506041543 | 21 | 174 | 0.0 | 1.6 | 0.00 | 0.00 | 0.00 | 69 | 1007.2 |
| 20260506041039 | 21 | 206 | 0.0 | 1.6 | 0.00 | 0.00 | 0.00 | 69 | 1007.2 |
| 20260506040537 | 21 | 199 | 0.0 | 1.6 | 0.00 | 0.00 | 0.00 | 69 | 1007.0 |
| 20260506040032 | 21 | 204 | 0.0 | 1.6 | 0.00 | 0.00 | 0.00 | 69 | 1007.2 |
| 20260506035530 | 21 | 175 | 0.0 | 0.0 | 0.00 | 0.00 | 0.00 | 69 | 1007.1 |
| 20260506035026 | 21 | 193 | 0.0 | 0.0 | 0.00 | 0.00 | 0.00 | 69 | 1007.2 |
| 20260506034524 | 21 | 196 | 0.0 | 0.0 | 0.00 | 0.00 | 0.00 | 69 | 1007.1 |
| 20260506034020 | 21 | 213 | 0.0 | 3.2 | 0.00 | 0.00 | 0.00 | 69 | 1007.0 |
| 20260506033518 | 21 | 147 | 6.4 | 9.7 | 0.00 | 0.00 | 0.00 | 69 | 1007.2 |
| 20260506033015 | 21 | 146 | 3.2 | 4.8 | 0.00 | 0.00 | 0.00 | 69 | 1007.2 |
| 20260506032512 | 21 | 180 | 1.6 | 3.2 | 0.00 | 0.00 | 0.00 | 69 | 1007.0 |
| 20260506032008 | 21 | 175 | 0.0 | 0.0 | 0.00 | 0.00 | 0.00 | 69 | 1007.2 |
| 20260506031507 | 21 | 167 | 0.0 | 0.0 | 0.00 | 0.00 | 0.00 | 69 | 1007.1 |
| 20260506031003 | 21 | 186 | 0.0 | 0.0 | 0.00 | 0.00 | 0.00 | 69 | 1007.2 |
| 20260506030501 | 21 | 152 | 6.4 | 9.7 | 0.00 | 0.00 | 0.00 | 68 | 1007.1 |
| 20260506025958 | 21 | 171 | 1.6 | 3.2 | 0.00 | 0.00 | 0.00 | 68 | 1007.0 |
| 20260506025455 | 21 | 229 | 4.8 | 8.0 | 0.00 | 0.00 | 0.00 | 68 | 1007.0 |
| 20260506024951 | 21 | 197 | 0.0 | 0.0 | 0.00 | 0.00 | 0.00 | 68 | 1007.3 |
| 20260506024448 | 21 | 128 | 1.6 | 3.2 | 0.00 | 0.00 | 0.00 | 68 | 1006.9 |
| 20260506023944 | 21 | 180 | 0.0 | 1.6 | 0.00 | 0.00 | 0.00 | 68 | 1007.0 |
| 20260506023441 | 21 | 193 | 0.0 | 0.0 | 0.00 | 0.00 | 0.00 | 69 | 1006.8 |
| 20260506022938 | 21 | 168 | 0.0 | 1.6 | 0.00 | 0.00 | 0.00 | 69 | 1006.9 |
| 20260506022435 | 21 | 228 | 0.0 | 1.6 | 0.00 | 0.00 | 0.00 | 69 | 1007.1 |
| 20260506021933 | 21 | 149 | 0.0 | 1.6 | 0.00 | 0.00 | 0.00 | 69 | 1007.0 |
| 20260506021430 | 21 | 180 | 4.8 | 9.7 | 0.00 | 0.00 | 0.00 | 69 | 1007.0 |
| 20260506020927 | 21 | 204 | 4.8 | 4.8 | 0.00 | 0.00 | 0.00 | 69 | 1006.4 |
| 20260506020425 | 21 | 204 | 0.0 | 1.6 | 0.00 | 0.00 | 0.00 | 69 | 1006.6 |
| 20260506015922 | 21 | 179 | 3.2 | 4.8 | 0.00 | 0.00 | 0.00 | 69 | 1006.1 |
| 20260506015420 | 21 | 193 | 0.0 | 0.0 | 0.00 | 0.00 | 0.00 | 69 | 1006.1 |
| 20260506014916 | 21 | 226 | 3.2 | 4.8 | 0.00 | 0.00 | 0.00 | 69 | 1006.3 |
| 20260506014413 | 21 | 206 | 0.0 | 1.6 | 0.00 | 0.00 | 0.00 | 69 | 1006.6 |
| 20260506013910 | 21 | 214 | 1.6 | 8.0 | 0.00 | 0.00 | 0.00 | 69 | 1006.9 |
| 20260506013408 | 21 | 196 | 0.0 | 0.0 | 0.00 | 0.00 | 0.00 | 69 | 1006.9 |
| 20260506012903 | 21 | 189 | 0.0 | 0.0 | 0.00 | 0.00 | 0.00 | 68 | 1006.9 |
| 20260506012401 | 21 | 177 | 0.0 | 0.0 | 0.00 | 0.00 | 0.00 | 68 | 1006.9 |
| 20260506011858 | 21 | 209 | 0.0 | 1.6 | 0.00 | 0.00 | 0.00 | 68 | 1006.9 |
| 20260506011355 | 21 | 202 | 1.6 | 4.8 | 0.00 | 0.00 | 0.00 | 68 | 1006.6 |
| 20260506010852 | 21 | 212 | 1.6 | 3.2 | 0.00 | 0.00 | 0.00 | 68 | 1006.8 |
| 20260506010350 | 21 | 228 | 0.0 | 0.0 | 0.00 | 0.00 | 0.00 | 68 | 1006.7 |
| 20260506005847 | 21 | 192 | 4.8 | 8.0 | 0.00 | 0.00 | 0.00 | 67 | 1006.7 |
| 20260506005344 | 21 | 202 | 1.6 | 3.2 | 0.00 | 0.00 | 0.00 | 67 | 1006.7 |
| 20260506004839 | 21 | 177 | 6.4 | 8.0 | 0.00 | 0.00 | 0.00 | 66 | 1006.4 |
| 20260506004337 | 21 | 197 | 6.4 | 9.7 | 0.00 | 0.00 | 0.00 | 66 | 1006.4 |
| 20260506003833 | 21 | 201 | 1.6 | 3.2 | 0.00 | 0.00 | 0.00 | 66 | 1006.3 |
| 20260506003329 | 21 | 210 | 1.6 | 8.0 | 0.00 | 0.00 | 0.00 | 66 | 1006.7 |
| 20260506002826 | 21 | 193 | 0.0 | 1.6 | 0.00 | 0.00 | 0.00 | 66 | 1006.7 |
| 20260506002323 | 21 | 206 | 0.0 | 0.0 | 0.00 | 0.00 | 0.00 | 66 | 1006.6 |
| 20260506001818 | 22 | 147 | 1.6 | 3.2 | 0.00 | 0.00 | 0.00 | 65 | 1006.7 |
| 20260506001316 | 22 | 170 | 0.0 | 1.6 | 0.00 | 0.00 | 0.00 | 65 | 1006.3 |
| 20260506000812 | 22 | 134 | 6.4 | 9.7 | 0.00 | 0.00 | 0.00 | 65 | 1006.4 |
| 20260506000310 | 22 | 192 | 1.6 | 4.8 | 0.00 | 0.00 | 0.00 | 64 | 1006.4 |
| 20260505235806 | 22 | 176 | 1.6 | 3.2 | 0.00 | 0.00 | 0.00 | 64 | 1006.7 |
| 20260505235305 | 22 | 210 | 1.6 | 3.2 | 0.00 | 0.00 | 0.00 | 64 | 1006.6 |
| 20260505234801 | 22 | 204 | 3.2 | 4.8 | 0.00 | 0.00 | 0.00 | 63 | 1006.7 |
| 20260505234259 | 22 | 202 | 1.6 | 3.2 | 0.00 | 0.00 | 0.00 | 63 | 1006.6 |
| 20260505233755 | 22 | 179 | 9.7 | 11.3 | 0.00 | 0.00 | 0.00 | 63 | 1006.7 |
| 20260505233253 | 22 | 201 | 4.8 | 8.0 | 0.00 | 0.00 | 0.00 | 63 | 1007.0 |
| 20260505232750 | 22 | 167 | 4.8 | 8.0 | 0.00 | 0.00 | 0.00 | 63 | 1006.9 |
| 20260505232248 | 22 | 197 | 3.2 | 4.8 | 0.00 | 0.00 | 0.00 | 63 | 1007.1 |
| 20260505231744 | 22 | 232 | 1.6 | 1.6 | 0.00 | 0.00 | 0.00 | 63 | 1007.2 |
| 20260505231243 | 22 | 194 | 3.2 | 8.0 | 0.00 | 0.00 | 0.00 | 62 | 1007.4 |
| 20260505230741 | 22 | 167 | 1.6 | 1.6 | 0.00 | 0.00 | 0.00 | 62 | 1007.5 |
| 20260505230237 | 22 | 231 | 4.8 | 8.0 | 0.00 | 0.00 | 0.00 | 62 | 1007.6 |
| 20260505225734 | 22 | 208 | 3.2 | 4.8 | 0.00 | 0.00 | 0.00 | 62 | 1007.4 |
| 20260505225231 | 22 | 207 | 4.8 | 4.8 | 0.00 | 0.00 | 0.00 | 62 | 1007.4 |
| 20260505224726 | 22 | 174 | 3.2 | 4.8 | 0.00 | 0.00 | 0.00 | 61 | 1007.3 |
| 20260505224224 | 22 | 186 | 1.6 | 3.2 | 0.00 | 0.00 | 0.00 | 62 | 1007.4 |
| 20260505223721 | 22 | 206 | 3.2 | 3.2 | 0.00 | 0.00 | 0.00 | 61 | 1007.4 |
| 20260505223217 | 22 | 208 | 4.8 | 8.0 | 0.00 | 0.00 | 0.00 | 61 | 1007.5 |
| 20260505222713 | 22 | 206 | 4.8 | 8.0 | 0.00 | 0.00 | 0.00 | 61 | 1007.9 |
| 20260505222209 | 22 | 176 | 6.4 | 12.9 | 0.00 | 0.00 | 0.00 | 61 | 1007.6 |
| 20260505221707 | 22 | 280 | 8.0 | 9.7 | 0.00 | 0.00 | 0.00 | 61 | 1007.7 |
| 20260505221203 | 22 | 162 | 4.8 | 4.8 | 0.00 | 0.00 | 0.00 | 61 | 1007.7 |
| 20260505220700 | 22 | 180 | 4.8 | 4.8 | 0.00 | 0.00 | 0.00 | 61 | 1007.7 |
| 20260505220159 | 22 | 186 | 8.0 | 14.5 | 0.00 | 0.00 | 0.00 | 61 | 1007.6 |
| 20260505215656 | 22 | 206 | 4.8 | 8.0 | 0.00 | 0.00 | 0.00 | 61 | 1007.7 |
| 20260505215154 | 22 | 215 | 4.8 | 8.0 | 0.00 | 0.00 | 0.00 | 60 | 1008.0 |
| 20260505214651 | 22 | 203 | 0.0 | 0.0 | 0.00 | 0.00 | 0.00 | 60 | 1007.8 |
| 20260505214148 | 22 | 167 | 4.8 | 8.0 | 0.00 | 0.00 | 0.00 | 59 | 1007.5 |
| 20260505213646 | 22 | 212 | 4.8 | 8.0 | 0.00 | 0.00 | 0.00 | 59 | 1007.8 |
| 20260505213142 | 22 | 167 | 8.0 | 11.3 | 0.00 | 0.00 | 0.00 | 58 | 1007.7 |
| 20260505212638 | 22 | 175 | 4.8 | 4.8 | 0.00 | 0.00 | 0.00 | 58 | 1007.9 |
| 20260505212136 | 23 | 152 | 3.2 | 3.2 | 0.00 | 0.00 | 0.00 | 56 | 1007.9 |
| 20260505211633 | 23 | 184 | 3.2 | 4.8 | 0.00 | 0.00 | 0.00 | 56 | 1007.8 |
| 20260505211130 | 23 | 195 | 4.8 | 4.8 | 0.00 | 0.00 | 0.00 | 56 | 1007.9 |
| 20260505210627 | 23 | 160 | 4.8 | 4.8 | 0.00 | 0.00 | 0.00 | 57 | 1007.7 |
| 20260505210123 | 23 | 128 | 12.9 | 20.9 | 0.00 | 0.00 | 0.00 | 55 | 1007.7 |
| 20260505205621 | 23 | 157 | 8.0 | 11.3 | 0.00 | 0.00 | 0.00 | 56 | 1007.9 |
| 20260505205119 | 23 | 198 | 4.8 | 8.0 | 0.00 | 0.00 | 0.00 | 56 | 1007.7 |
| 20260505204616 | 22 | 219 | 4.8 | 9.7 | 0.00 | 0.00 | 0.00 | 56 | 1007.7 |
| 20260505204114 | 22 | 168 | 3.2 | 3.2 | 0.00 | 0.00 | 0.00 | 57 | 1007.6 |
| 20260505203610 | 22 | 212 | 1.6 | 1.6 | 0.00 | 0.00 | 0.00 | 57 | 1007.5 |
| 20260505203107 | 22 | 184 | 9.7 | 12.9 | 0.00 | 0.00 | 0.00 | 56 | 1007.5 |
| 20260505202602 | 22 | 150 | 8.0 | 11.3 | 0.00 | 0.00 | 0.00 | 56 | 1007.5 |
| 20260505202059 | 23 | 167 | 6.4 | 8.0 | 0.00 | 0.00 | 0.00 | 55 | 1007.4 |
| 20260505201556 | 23 | 194 | 3.2 | 4.8 | 0.00 | 0.00 | 0.00 | 55 | 1007.6 |
| 20260505201054 | 23 | 160 | 3.2 | 4.8 | 0.00 | 0.00 | 0.00 | 56 | 1007.7 |
| 20260505200551 | 22 | 153 | 11.3 | 16.1 | 0.00 | 0.00 | 0.00 | 55 | 1007.8 |
| 20260505200048 | 22 | 165 | 6.4 | 11.3 | 0.00 | 0.00 | 0.00 | 56 | 1007.6 |
| 20260505195544 | 22 | 188 | 3.2 | 4.8 | 0.00 | 0.00 | 0.00 | 56 | 1007.7 |
| 20260505195042 | 22 | 197 | 0.0 | 1.6 | 0.00 | 0.00 | 0.00 | 57 | 1007.8 |
| 20260505194538 | 22 | 192 | 6.4 | 8.0 | 0.00 | 0.00 | 0.00 | 54 | 1007.8 |
| 20260505194034 | 22 | 179 | 3.2 | 4.8 | 0.00 | 0.00 | 0.00 | 56 | 1007.7 |
| 20260505193531 | 22 | 190 | 1.6 | 3.2 | 0.00 | 0.00 | 0.00 | 58 | 1007.7 |
| 20260505193028 | 22 | 205 | 3.2 | 3.2 | 0.00 | 0.00 | 0.00 | 57 | 1007.9 |
| 20260505192527 | 22 | 153 | 4.8 | 8.0 | 0.00 | 0.00 | 0.00 | 58 | 1008.0 |
| 20260505192024 | 22 | 155 | 4.8 | 4.8 | 0.00 | 0.00 | 0.00 | 57 | 1008.0 |
| 20260505191522 | 22 | 192 | 1.6 | 1.6 | 0.00 | 0.00 | 0.00 | 56 | 1008.3 |
| 20260505191020 | 22 | 235 | 3.2 | 4.8 | 0.00 | 0.00 | 0.00 | 53 | 1008.7 |
| 20260505190514 | 22 | 222 | 6.4 | 9.7 | 0.00 | 0.00 | 0.00 | 53 | 1009.0 |
| 20260505190011 | 23 | 198 | 4.8 | 4.8 | 0.00 | 0.00 | 0.00 | 52 | 1009.2 |
| 20260505185508 | 23 | 219 | 3.2 | 8.0 | 0.00 | 0.00 | 0.00 | 52 | 1009.6 |
| 20260505185004 | 23 | 221 | 4.8 | 4.8 | 0.00 | 0.00 | 0.00 | 51 | 1009.8 |
| 20260505184501 | 23 | 266 | 3.2 | 3.2 | 0.00 | 0.00 | 0.00 | 50 | 1009.8 |
| 20260505183957 | 23 | 244 | 4.8 | 8.0 | 0.00 | 0.00 | 0.00 | 49 | 1009.7 |
| 20260505183455 | 23 | 231 | 0.0 | 0.0 | 0.00 | 0.00 | 0.00 | 48 | 1009.7 |
| 20260505182951 | 24 | 204 | 6.4 | 8.0 | 0.00 | 0.00 | 0.00 | 46 | 1009.8 |
| 20260505182448 | 24 | 231 | 4.8 | 4.8 | 0.00 | 0.00 | 0.00 | 45 | 1009.8 |
| 20260505181944 | 25 | 245 | 4.8 | 9.7 | 0.00 | 0.00 | 0.00 | 45 | 1009.5 |
| 20260505181442 | 25 | 284 | 0.0 | 1.6 | 0.00 | 0.00 | 0.00 | 47 | 1009.9 |
| 20260505180939 | 24 | 210 | 1.6 | 3.2 | 0.00 | 0.00 | 0.00 | 48 | 1009.8 |
| 20260505180435 | 24 | 208 | 1.6 | 3.2 | 0.00 | 0.00 | 0.00 | 50 | 1010.0 |
| 20260505175932 | 24 | 252 | 4.8 | 9.7 | 0.00 | 0.00 | 0.00 | 45 | 1009.8 |
| 20260505175428 | 25 | 219 | 4.8 | 8.0 | 0.00 | 0.00 | 0.00 | 45 | 1009.6 |
| 20260505174924 | 25 | 232 | 4.8 | 12.9 | 0.00 | 0.00 | 0.00 | 46 | 1009.7 |
| 20260505174422 | 25 | 224 | 0.0 | 1.6 | 0.00 | 0.00 | 0.00 | 45 | 1009.9 |
| 20260505173918 | 25 | 223 | 8.0 | 11.3 | 0.00 | 0.00 | 0.00 | 44 | 1009.9 |
| 20260505173414 | 25 | 205 | 0.0 | 0.0 | 0.00 | 0.00 | 0.00 | 47 | 1009.7 |
| 20260505172911 | 24 | 219 | 3.2 | 4.8 | 0.00 | 0.00 | 0.00 | 45 | 1010.0 |
| 20260505172409 | 24 | 169 | 0.0 | 0.0 | 0.00 | 0.00 | 0.00 | 48 | 1009.9 |
| 20260505171909 | 23 | 260 | 0.0 | 1.6 | 0.00 | 0.00 | 0.00 | 48 | 1010.0 |
| 20260505171406 | 24 | 186 | 0.0 | 1.6 | 0.00 | 0.00 | 0.00 | 50 | 1010.3 |
| 20260505170902 | 23 | 188 | 0.0 | 1.6 | 0.00 | 0.00 | 0.00 | 52 | 1010.1 |
| 20260505170359 | 23 | 214 | 4.8 | 8.0 | 0.00 | 0.00 | 0.00 | 49 | 1010.5 |
| 20260505165855 | 24 | 231 | 4.8 | 12.9 | 0.00 | 0.00 | 0.00 | 50 | 1010.2 |
| 20260505165350 | 23 | 204 | 1.6 | 4.8 | 0.00 | 0.00 | 0.00 | 52 | 1010.4 |
| 20260505164846 | 23 | 224 | 0.0 | 1.6 | 0.00 | 0.00 | 0.00 | 49 | 1010.3 |
| 20260505164343 | 23 | 190 | 3.2 | 9.7 | 0.00 | 0.00 | 0.00 | 50 | 1010.4 |
| 20260505163841 | 23 | 200 | 4.8 | 11.3 | 0.00 | 0.00 | 0.00 | 51 | 1010.6 |
| 20260505163340 | 24 | 250 | 3.2 | 3.2 | 0.00 | 0.00 | 0.00 | 53 | 1010.4 |
| 20260505162838 | 23 | 201 | 6.4 | 12.9 | 0.00 | 0.00 | 0.00 | 51 | 1010.4 |
| 20260505162334 | 23 | 218 | 6.4 | 11.3 | 0.00 | 0.00 | 0.00 | 50 | 1010.4 |
| 20260505161831 | 23 | 212 | 3.2 | 4.8 | 0.00 | 0.00 | 0.00 | 51 | 1010.3 |
| 20260505161328 | 23 | 243 | 3.2 | 8.0 | 0.00 | 0.00 | 0.00 | 53 | 1010.4 |
| 20260505160825 | 22 | 207 | 3.2 | 9.7 | 0.00 | 0.00 | 0.00 | 52 | 1010.3 |
| 20260505160323 | 22 | 170 | 4.8 | 4.8 | 0.00 | 0.00 | 0.00 | 51 | 1010.1 |
| 20260505153302 | 22 | 184 | 8.0 | 11.3 | 0.00 | 0.00 | 0.00 | 58 | 1010.3 |
| 20260505152759 | 21 | 194 | 1.6 | 3.2 | 0.00 | 0.00 | 0.00 | 61 | 1010.1 |
| 20260505152255 | 21 | 196 | 3.2 | 4.8 | 0.00 | 0.00 | 0.00 | 61 | 1010.1 |
| 20260505151749 | 21 | 166 | 4.8 | 4.8 | 0.00 | 0.00 | 0.00 | 59 | 1010.1 |
| 20260505151247 | 21 | 200 | 6.4 | 8.0 | 0.00 | 0.00 | 0.00 | 59 | 1010.3 |
| 20260505150744 | 21 | 319 | 4.8 | 8.0 | 0.00 | 0.00 | 0.00 | 60 | 1010.4 |
| 20260505150241 | 21 | 198 | 1.6 | 3.2 | 0.00 | 0.00 | 0.00 | 61 | 1010.3 |
| 20260505140206 | 18 | 178 | 1.6 | 4.8 | 0.00 | 0.00 | 0.00 | 74 | 1010.5 |
| 20260505130130 | 16 | 196 | 3.2 | 3.2 | 0.00 | 0.00 | 0.00 | 78 | 1010.4 |
| 20260505124619 | 15 | 184 | 0.0 | 1.6 | 0.00 | 0.00 | 0.00 | 80 | 1010.3 |
| 20260505124115 | 15 | 185 | 0.0 | 1.6 | 0.00 | 0.00 | 0.00 | 80 | 1010.1 |
| 20260505123612 | 15 | 190 | 1.6 | 1.6 | 0.00 | 0.00 | 0.00 | 80 | 1010.2 |
| 20260505123108 | 15 | 178 | 1.6 | 1.6 | 0.00 | 0.00 | 0.00 | 80 | 1010.1 |
| 20260505122605 | 15 | 189 | 1.6 | 1.6 | 0.00 | 0.00 | 0.00 | 81 | 1009.9 |
| 20260505122102 | 15 | 195 | 1.6 | 1.6 | 0.00 | 0.00 | 0.00 | 82 | 1010.0 |
| 20260505121559 | 14 | 163 | 3.2 | 4.8 | 0.00 | 0.00 | 0.00 | 83 | 1010.0 |
| 20260505121056 | 13 | 183 | 0.0 | 0.0 | 0.00 | 0.00 | 0.00 | 85 | 1010.1 |
| 20260505120552 | 13 | 188 | 1.6 | 1.6 | 0.00 | 0.00 | 0.00 | 87 | 1009.9 |
| 20260505120048 | 12 | 172 | 0.0 | 0.0 | 0.00 | 0.00 | 0.00 | 88 | 1010.0 |
| 20260505115542 | 12 | 167 | 1.6 | 1.6 | 0.00 | 0.00 | 0.00 | 89 | 1010.0 |
| 20260505115040 | 12 | 184 | 0.0 | 0.0 | 0.00 | 0.00 | 0.00 | 89 | 1009.8 |
| 20260505114537 | 12 | 184 | 0.0 | 0.0 | 0.00 | 0.00 | 0.00 | 89 | 1009.8 |
| 20260505114033 | 12 | 176 | 0.0 | 0.0 | 0.00 | 0.00 | 0.00 | 88 | 1009.8 |
| 20260505113530 | 12 | 176 | 0.0 | 0.0 | 0.00 | 0.00 | 0.00 | 88 | 1009.5 |
| 20260505113026 | 12 | 176 | 0.0 | 0.0 | 0.00 | 0.00 | 0.00 | 89 | 1009.4 |
| 20260505112522 | 12 | 190 | 0.0 | 0.0 | 0.00 | 0.00 | 0.00 | 88 | 1009.1 |
| 20260505112015 | 12 | 190 | 0.0 | 0.0 | 0.00 | 0.00 | 0.00 | 87 | 1008.9 |
| 20260505111508 | 12 | 190 | 0.0 | 0.0 | 0.00 | 0.00 | 0.00 | 87 | 1009.2 |
| 20260505111004 | 12 | 190 | 0.0 | 0.0 | 0.00 | 0.00 | 0.00 | 86 | 1009.0 |
| 20260505110501 | 12 | 190 | 0.0 | 0.0 | 0.00 | 0.00 | 0.00 | 85 | 1009.2 |
| 20260505101933 | 13 | 184 | 0.0 | 0.0 | 0.00 | 0.00 | 0.00 | 79 | 1008.7 |
| 20260505101432 | 14 | 171 | 0.0 | 1.6 | 0.00 | 0.00 | 0.00 | 79 | 1008.6 |
| 20260505100928 | 14 | 172 | 0.0 | 0.0 | 0.00 | 0.00 | 0.00 | 79 | 1008.3 |
| 20260505100425 | 14 | 176 | 1.6 | 1.6 | 0.00 | 0.00 | 0.00 | 78 | 1008.3 |
| 20260505095921 | 14 | 182 | 0.0 | 1.6 | 0.00 | 0.00 | 0.00 | 77 | 1008.3 |
| 20260505095419 | 14 | 192 | 1.6 | 1.6 | 0.00 | 0.00 | 0.00 | 77 | 1008.5 |
| 20260505094914 | 14 | 184 | 0.0 | 0.0 | 0.00 | 0.00 | 0.00 | 77 | 1008.2 |
| 20260505094412 | 14 | 180 | 0.0 | 1.6 | 0.00 | 0.00 | 0.00 | 77 | 1008.1 |
| 20260505093907 | 14 | 179 | 1.6 | 4.8 | 0.00 | 0.00 | 0.00 | 77 | 1008.1 |
| 20260505093404 | 14 | 179 | 0.0 | 0.0 | 0.00 | 0.00 | 0.00 | 77 | 1008.1 |
| 20260505092902 | 15 | 187 | 0.0 | 0.0 | 0.00 | 0.00 | 0.00 | 76 | 1008.1 |
| 20260505092400 | 15 | 182 | 3.2 | 4.8 | 0.00 | 0.00 | 0.00 | 76 | 1008.1 |
| 20260505091857 | 15 | 194 | 1.6 | 1.6 | 0.00 | 0.00 | 0.00 | 76 | 1008.2 |
| 20260505091355 | 15 | 180 | 1.6 | 1.6 | 0.00 | 0.00 | 0.00 | 76 | 1008.2 |
| 20260505090852 | 15 | 177 | 1.6 | 1.6 | 0.00 | 0.00 | 0.00 | 75 | 1008.4 |
| 20260505090350 | 15 | 178 | 3.2 | 3.2 | 0.00 | 0.00 | 0.00 | 75 | 1008.3 |
| 20260505085847 | 15 | 162 | 1.6 | 3.2 | 0.00 | 0.00 | 0.00 | 74 | 1008.3 |
| 20260505085345 | 15 | 180 | 1.6 | 1.6 | 0.00 | 0.00 | 0.00 | 74 | 1008.1 |
| 20260505084843 | 15 | 177 | 1.6 | 1.6 | 0.00 | 0.00 | 0.00 | 74 | 1008.1 |
| 20260505084341 | 15 | 176 | 1.6 | 3.2 | 0.00 | 0.00 | 0.00 | 74 | 1008.3 |
| 20260505083838 | 15 | 163 | 0.0 | 1.6 | 0.00 | 0.00 | 0.00 | 74 | 1008.1 |
| 20260505083336 | 15 | 181 | 3.2 | 3.2 | 0.00 | 0.00 | 0.00 | 74 | 1008.1 |
| 20260505082832 | 15 | 154 | 0.0 | 3.2 | 0.00 | 0.00 | 0.00 | 73 | 1008.3 |
| 20260505082328 | 15 | 173 | 0.0 | 1.6 | 0.00 | 0.00 | 0.00 | 72 | 1008.3 |
| 20260505081825 | 15 | 193 | 3.2 | 3.2 | 0.00 | 0.00 | 0.00 | 72 | 1008.5 |
| 20260505081322 | 15 | 195 | 3.2 | 3.2 | 0.00 | 0.00 | 0.00 | 72 | 1008.2 |
| 20260505080818 | 15 | 165 | 3.2 | 3.2 | 0.00 | 0.00 | 0.00 | 72 | 1008.4 |
| 20260505080314 | 15 | 180 | 0.0 | 0.0 | 0.00 | 0.00 | 0.00 | 73 | 1008.6 |
| 20260505075810 | 15 | 155 | 1.6 | 3.2 | 0.00 | 0.00 | 0.00 | 72 | 1008.5 |
| 20260505075307 | 15 | 187 | 1.6 | 3.2 | 0.00 | 0.00 | 0.00 | 73 | 1008.6 |
| 20260505074804 | 15 | 173 | 1.6 | 1.6 | 0.00 | 0.00 | 0.00 | 74 | 1008.7 |
| 20260505074301 | 15 | 195 | 1.6 | 1.6 | 0.00 | 0.00 | 0.00 | 74 | 1008.7 |
| 20260505073759 | 15 | 178 | 0.0 | 0.0 | 0.00 | 0.00 | 0.00 | 75 | 1008.9 |
| 20260505073257 | 14 | 173 | 0.0 | 0.0 | 0.00 | 0.00 | 0.00 | 76 | 1009.0 |
| 20260505072753 | 14 | 171 | 0.0 | 0.0 | 0.00 | 0.00 | 0.00 | 77 | 1009.1 |
| 20260505072249 | 14 | 178 | 0.0 | 0.0 | 0.00 | 0.00 | 0.00 | 78 | 1008.9 |
| 20260505071745 | 14 | 168 | 0.0 | 0.0 | 0.00 | 0.00 | 0.00 | 78 | 1008.9 |
| 20260505071242 | 13 | 168 | 3.2 | 3.2 | 0.00 | 0.00 | 0.00 | 78 | 1009.1 |
| 20260505070740 | 13 | 178 | 0.0 | 0.0 | 0.00 | 0.00 | 0.00 | 81 | 1009.0 |
| 20260505070236 | 13 | 185 | 1.6 | 3.2 | 0.00 | 0.00 | 0.00 | 82 | 1008.9 |
| 20260505065731 | 13 | 171 | 0.0 | 0.0 | 0.00 | 0.00 | 0.00 | 82 | 1009.1 |
| 20260505065229 | 13 | 171 | 0.0 | 0.0 | 0.00 | 0.00 | 0.00 | 81 | 1009.0 |
| 20260505064725 | 13 | 171 | 0.0 | 0.0 | 0.00 | 0.00 | 0.00 | 81 | 1008.9 |
| 20260505064223 | 13 | 171 | 0.0 | 0.0 | 0.00 | 0.00 | 0.00 | 79 | 1008.9 |
| 20260505063721 | 13 | 171 | 0.0 | 0.0 | 0.00 | 0.00 | 0.00 | 78 | 1008.9 |
| 20260505063217 | 14 | 171 | 0.0 | 0.0 | 0.00 | 0.00 | 0.00 | 77 | 1008.9 |
| 20260505062713 | 15 | 172 | 0.0 | 0.0 | 0.00 | 0.00 | 0.00 | 76 | 1009.0 |
| 20260505062211 | 15 | 172 | 0.0 | 0.0 | 0.00 | 0.00 | 0.00 | 75 | 1009.0 |
| 20260505061708 | 15 | 172 | 0.0 | 0.0 | 0.00 | 0.00 | 0.00 | 75 | 1008.8 |
| 20260505061206 | 15 | 171 | 1.6 | 1.6 | 0.00 | 0.00 | 0.00 | 76 | 1009.1 |
| 20260505060703 | 15 | 183 | 0.0 | 0.0 | 0.00 | 0.00 | 0.00 | 76 | 1009.3 |
| 20260505060200 | 15 | 183 | 0.0 | 0.0 | 0.00 | 0.00 | 0.00 | 75 | 1009.1 |
| 20260505055655 | 15 | 186 | 0.0 | 0.0 | 0.00 | 0.00 | 0.00 | 75 | 1009.3 |
| 20260505055151 | 15 | 173 | 0.0 | 0.0 | 0.00 | 0.00 | 0.00 | 74 | 1009.2 |
| 20260505054649 | 15 | 172 | 0.0 | 0.0 | 0.00 | 0.00 | 0.00 | 74 | 1009.3 |
| 20260505054147 | 15 | 174 | 0.0 | 0.0 | 0.00 | 0.00 | 0.00 | 73 | 1009.2 |
| 20260505053644 | 15 | 174 | 0.0 | 0.0 | 0.00 | 0.00 | 0.00 | 73 | 1009.1 |
| 20260505053140 | 15 | 177 | 0.0 | 0.0 | 0.00 | 0.00 | 0.00 | 72 | 1009.4 |
| 20260505052638 | 15 | 177 | 3.2 | 3.2 | 0.00 | 0.00 | 0.00 | 72 | 1009.2 |
| 20260505052135 | 16 | 173 | 0.0 | 0.0 | 0.00 | 0.00 | 0.00 | 72 | 1009.2 |
| 20260505051632 | 16 | 179 | 1.6 | 1.6 | 0.00 | 0.00 | 0.00 | 72 | 1009.3 |
| 20260505051130 | 16 | 184 | 0.0 | 1.6 | 0.00 | 0.00 | 0.00 | 72 | 1009.4 |
| 20260505050627 | 15 | 180 | 0.0 | 0.0 | 0.00 | 0.00 | 0.00 | 72 | 1009.1 |
| 20260505050126 | 15 | 178 | 0.0 | 0.0 | 0.00 | 0.00 | 0.00 | 72 | 1009.3 |